Norwegian Crown — C6II4 — position and weather

sailwx.info

Track history (hours):
 
Tides and Currents Weather Stations Pressure Air Temp Water Temp Dewpoint Dewpoint Depression Visibility Wind Speed Wind Dir Waves Ship Positions

Norwegian Crown

Operator: Norwegian Cruise Line

Last reported at 2018-May-26 04:24 UTC. Time now 2018-May-26 10:13 UTC.
Position N 56°01' W 003°26'.

Type: Ship. MMSI: 308785000.

Date/timePositionNaut miles runAvg speedWind from/ knotsBaromVisibWave heightAir tempDewpointWater temp
2018-May-26 04:24N 56°01' W 003°26'2 5.5
2018-May-26 04:00N 56°01' W 003°22'510.6
2018-May-26 03:31N 56°02' W 003°13'510.0
2018-May-26 03:00N 56°04' W 003°05'510.2
2018-May-26 02:30N 56°05' W 002°56'5 9.7
2018-May-26 02:01N 56°07' W 002°48'5 9.9
2018-May-26 01:31N 56°08' W 002°40'5 9.8
2018-May-26 01:01N 56°08' W 002°31'5 9.3
2018-May-26 00:30N 56°08' W 002°22'611.1
2018-May-26 00:01N 56°09' W 002°13'611.5
2018-May-25 23:30N 56°10' W 002°02'611.7
2018-May-25 23:00N 56°10' W 001°52'811.8
2018-May-25 22:22N 56°12' W 001°39'25314.5
2018-May-25 04:57N 57°12' E 005°49'2516.7
2018-May-25 03:27N 57°20' E 006°33'716.3
2018-May-25 03:00N 57°22' E 006°46'816.4
2018-May-25 02:30N 57°25' E 007°01'3616.4
2018-May-25 00:18N 57°36' E 008°05'516.7
2018-May-25 00:00N 57°38' E 008°13'816.6
2018-May-24 23:30N 57°40' E 008°28'916.5
2018-May-24 22:59N 57°43' E 008°43'816.2
2018-May-24 22:30N 57°45' E 008°57'2216.0
2018-May-24 21:09N 57°49' E 009°37'316.1
2018-May-24 20:59N 57°49' E 009°42'816.2
2018-May-24 20:30N 57°49' E 009°57'816.6
2018-May-24 20:00N 57°49' E 010°12'816.7
2018-May-24 19:31N 57°50' E 010°28'816.3
2018-May-24 19:01N 57°50' E 010°43'815.7
2018-May-24 18:31N 57°46' E 010°55'816.1
2018-May-24 18:01N 57°42' E 011°08'816.2
2018-May-24 17:30N 57°39' E 011°22'815.6
2018-May-24 17:01N 57°36' E 011°36'611.3
2018-May-24 16:30N 57°41' E 011°42'510.8
2018-May-24 16:00N 57°41' E 011°52'2 4.2
2018-May-24 15:30N 57°42' E 011°56'0 0.2
2018-May-24 15:00N 57°42' E 011°56'0 0.0
2018-May-24 14:31N 57°42' E 011°56'0 0.0
2018-May-24 14:01N 57°42' E 011°56'0 0.0
2018-May-24 13:27N 57°42' E 011°56'0 0.0
2018-May-24 09:01N 57°42' E 011°56'0 0.0
2018-May-24 08:30N 57°42' E 011°56'0 0.0
2018-May-24 08:01N 57°42' E 011°56'0 0.0
2018-May-24 07:30N 57°42' E 011°56'0 0.0
2018-May-24 07:01N 57°42' E 011°56'0 0.0
2018-May-24 06:27N 57°42' E 011°56'0 0.0
2018-May-24 06:01N 57°42' E 011°56'0 0.9
2018-May-24 05:30N 57°42' E 011°57'2 3.8
2018-May-24 05:01N 57°41' E 011°53'510.4
2018-May-24 04:31N 57°39' E 011°45'611.4
2018-May-24 04:01N 57°35' E 011°38'510.2
2018-May-24 03:30N 57°30' E 011°37'612.2
2018-May-24 03:00N 57°23' E 011°37'611.1
2018-May-24 02:27N 57°17' E 011°38'510.8
2018-May-24 02:00N 57°13' E 011°39'1010.6
2018-May-24 01:01N 57°02' E 011°43'010.7
2018-May-24 01:00N 57°02' E 011°43'1210.6
2018-May-23 23:54N 56°51' E 011°52'1411.0
2018-May-23 22:34N 56°37' E 011°57'110.9
2018-May-23 22:26N 56°36' E 011°58'1010.8
2018-May-23 21:31N 56°26' E 012°02'510.8
2018-May-23 21:00N 56°21' E 012°04'915.0
2018-May-23 20:25N 56°14' E 012°15'716.0
2018-May-23 20:00N 56°10' E 012°25'816.2
2018-May-23 19:30N 56°05' E 012°36'815.7
2018-May-23 19:01N 55°58' E 012°42'714.5
2018-May-23 18:30N 55°51' E 012°45'815.2
2018-May-23 18:00N 55°44' E 012°41'510.9
2018-May-23 17:30N 55°38' E 012°42'4 8.3
2018-May-23 17:00N 55°34' E 012°42'510.5
2018-May-23 16:30N 55°29' E 012°42'815.1
2018-May-23 16:01N 55°22' E 012°40'612.3
2018-May-23 15:31N 55°17' E 012°47'815.8
2018-May-23 15:01N 55°15' E 013°01'816.1
2018-May-23 14:30N 55°15' E 013°15'1016.2
2018-May-23 13:55N 55°14' E 013°32'716.2
2018-May-23 13:30N 55°14' E 013°44'816.2
2018-May-23 13:00N 55°13' E 013°58'816.1
2018-May-23 12:31N 55°13' E 014°12'815.2
2018-May-23 12:00N 55°18' E 014°22'816.2
2018-May-23 11:31N 55°24' E 014°31'815.8
2018-May-23 11:01N 55°29' E 014°42'816.0
2018-May-23 10:31N 55°33' E 014°54'816.0
2018-May-23 10:00N 55°37' E 015°07'815.9
2018-May-23 09:31N 55°41' E 015°19'815.9
2018-May-23 09:00N 55°45' E 015°31'816.0
2018-May-23 08:31N 55°48' E 015°44'816.1
2018-May-23 08:00N 55°52' E 015°56'816.1
2018-May-23 07:30N 55°57' E 016°09'815.9
2018-May-23 07:00N 56°01' E 016°21'816.0
2018-May-23 06:31N 56°05' E 016°33'816.0
2018-May-23 06:00N 56°10' E 016°45'816.1
2018-May-23 05:30N 56°17' E 016°51'816.2
2018-May-23 05:00N 56°25' E 016°56'816.2
2018-May-23 04:31N 56°32' E 017°01'816.3
2018-May-23 04:01N 56°40' E 017°07'816.2
2018-May-23 03:31N 56°47' E 017°12'1316.2
2018-May-23 02:41N 56°60' E 017°21'7216.1
2018-May-22 22:14N 58°05' E 018°14'916.0
2018-May-22 21:42N 58°13' E 018°21'916.1
2018-May-22 21:10N 58°21' E 018°29'316.3
2018-May-22 20:59N 58°24' E 018°31'816.0
2018-May-22 20:28N 58°31' E 018°38'815.8
2018-May-22 19:58N 58°38' E 018°45'716.0
2018-May-22 19:30N 58°45' E 018°51'1216.2
2018-May-22 18:48N 58°56' E 018°59'516.1
2018-May-22 18:29N 59°00' E 019°03'816.4
2018-May-22 18:00N 59°08' E 019°08'713.8
2018-May-22 17:31N 59°14' E 019°04'510.4
2018-May-22 17:00N 59°16' E 018°55'510.2
2018-May-22 16:30N 59°20' E 018°48'611.8
2018-May-22 16:00N 59°22' E 018°37'611.8
2018-May-22 15:30N 59°26' E 018°28'3 5.0
2018-May-22 15:00N 59°24' E 018°26'3 5.5
2018-May-22 14:30N 59°22' E 018°23'511.0
2018-May-22 14:00N 59°20' E 018°13'4 8.0
2018-May-22 13:30N 59°19' E 018°05'0 0.1
2018-May-22 12:55N 59°19' E 018°05'0 0.0
2018-May-22 12:28N 59°19' E 018°05'0 0.0
2018-May-22 11:58N 59°19' E 018°05'0 0.0
2018-May-22 11:28N 59°19' E 018°05'0 0.0
2018-May-22 11:00N 59°19' E 018°05'0 0.0
2018-May-22 10:30N 59°19' E 018°05'0 0.0
2018-May-22 10:00N 59°19' E 018°05'0 0.0
2018-May-22 09:30N 59°19' E 018°05'0 0.0
2018-May-22 09:00N 59°19' E 018°05'0 0.0
2018-May-22 08:31N 59°19' E 018°05'0 0.0
2018-May-22 08:01N 59°19' E 018°05'0 0.0
2018-May-22 07:31N 59°19' E 018°05'0 0.0
2018-May-22 07:00N 59°19' E 018°05'0 0.0
2018-May-22 06:30N 59°19' E 018°05'0 0.0
2018-May-22 06:00N 59°19' E 018°05'0 0.0
2018-May-22 05:30N 59°19' E 018°05'0 0.0
2018-May-22 04:59N 59°19' E 018°05'0 0.0
2018-May-22 04:28N 59°19' E 018°05'0 0.0
2018-May-22 03:59N 59°19' E 018°05'0 0.0
2018-May-22 03:30N 59°19' E 018°05'0 0.0
2018-May-22 03:00N 59°19' E 018°05'0 0.0
2018-May-22 02:31N 59°19' E 018°05'0 0.0
2018-May-22 02:00N 59°19' E 018°05'0 0.0
2018-May-22 01:31N 59°19' E 018°05'0 0.0
2018-May-22 00:59N 59°19' E 018°05'0 0.0
2018-May-22 00:31N 59°19' E 018°05'0 0.0
2018-May-22 00:00N 59°19' E 018°05'0 0.0
2018-May-21 23:31N 59°19' E 018°05'0 0.0
2018-May-21 23:00N 59°19' E 018°05'0 0.0
2018-May-21 22:30N 59°19' E 018°05'0 0.0
2018-May-21 22:01N 59°19' E 018°05'0 0.0
2018-May-21 21:30N 59°19' E 018°05'0 0.0
2018-May-21 21:01N 59°19' E 018°05'0 0.0
2018-May-21 20:30N 59°19' E 018°05'0 0.0
2018-May-21 20:00N 59°19' E 018°05'0 0.0
2018-May-21 19:31N 59°19' E 018°05'0 0.0
2018-May-21 19:00N 59°19' E 018°05'0 0.0
2018-May-21 18:30N 59°19' E 018°05'0 0.0
2018-May-21 18:00N 59°19' E 018°05'0 0.0
2018-May-21 17:31N 59°19' E 018°05'0 0.0
2018-May-21 17:00N 59°19' E 018°05'0 0.0
2018-May-21 16:31N 59°19' E 018°05'0 0.0
2018-May-21 16:01N 59°19' E 018°05'0 0.0
2018-May-21 15:31N 59°19' E 018°05'0 0.0
2018-May-21 15:01N 59°19' E 018°05'0 0.0
2018-May-21 14:30N 59°19' E 018°05'0 0.0
2018-May-21 14:00N 59°19' E 018°05'0 0.0
2018-May-21 13:31N 59°19' E 018°05'0 0.0
2018-May-21 13:00N 59°19' E 018°05'0 0.0
2018-May-21 12:31N 59°19' E 018°05'0 0.0
2018-May-21 12:00N 59°19' E 018°05'0 0.0
2018-May-21 11:30N 59°19' E 018°05'0 0.0
2018-May-21 11:00N 59°19' E 018°05'0 0.0
2018-May-21 10:30N 59°19' E 018°05'0 0.0
2018-May-21 10:01N 59°19' E 018°05'0 0.0
2018-May-21 09:31N 59°19' E 018°05'0 0.0
2018-May-21 09:01N 59°19' E 018°05'0 0.0
2018-May-21 08:31N 59°19' E 018°05'0 0.1
2018-May-21 08:00N 59°19' E 018°05'0 0.0
2018-May-21 07:31N 59°19' E 018°05'0 0.0
2018-May-21 07:00N 59°19' E 018°05'0 0.0
2018-May-21 06:31N 59°19' E 018°05'2 4.4
2018-May-21 06:00N 59°19' E 018°09'510.8
2018-May-21 05:30N 59°23' E 018°17'5 9.7
2018-May-21 05:00N 59°22' E 018°27'5 9.9
2018-May-21 04:30N 59°26' E 018°23'611.1
2018-May-21 04:00N 59°24' E 018°33'611.8
2018-May-21 03:30N 59°22' E 018°44'713.1
2018-May-21 03:01N 59°18' E 018°53'510.0
2018-May-21 02:30N 59°15' E 019°02'713.1
2018-May-21 02:00N 59°11' E 019°12'5 9.9
2018-May-21 01:30N 59°06' E 019°12'510.2
2018-May-21 01:00N 59°01' E 019°08'510.7
2018-May-21 00:30N 58°56' E 019°05'611.1
2018-May-20 23:59N 58°51' E 019°01'610.9
2018-May-20 23:27N 58°45' E 018°57'511.1
2018-May-20 23:00N 58°41' E 018°53'611.0
2018-May-20 22:28N 58°35' E 018°49'100 6.1
2018-May-20 06:06N 57°04' E 017°33'316.8
2018-May-20 05:55N 57°01' E 017°31'716.9
2018-May-20 05:31N 56°55' E 017°26'816.8
2018-May-20 05:00N 56°47' E 017°20'816.7
2018-May-20 04:30N 56°39' E 017°15'816.7
2018-May-20 04:00N 56°32' E 017°09'816.6
2018-May-20 03:30N 56°24' E 017°03'816.6
2018-May-20 03:00N 56°16' E 016°57'816.6
2018-May-20 02:30N 56°09' E 016°52'816.1
2018-May-20 02:00N 56°03' E 016°42'816.6
2018-May-20 01:30N 55°58' E 016°30'816.7
2018-May-20 01:00N 55°53' E 016°17'816.8
2018-May-20 00:31N 55°50' E 016°04'816.8
2018-May-20 00:00N 55°46' E 015°51'816.6
2018-May-19 23:30N 55°42' E 015°38'816.6
2018-May-19 23:00N 55°38' E 015°25'816.7
2018-May-19 22:30N 55°34' E 015°12'816.6
2018-May-19 22:00N 55°30' E 014°59'816.5
2018-May-19 21:31N 55°26' E 014°46'816.4
2018-May-19 21:00N 55°21' E 014°34'816.3
2018-May-19 20:30N 55°15' E 014°25'815.8
2018-May-19 20:01N 55°11' E 014°14'816.5
2018-May-19 19:30N 55°11' E 013°59'816.2
2018-May-19 19:00N 55°11' E 013°45'816.1
2018-May-19 18:30N 55°11' E 013°31'816.0
2018-May-19 18:00N 55°12' E 013°17'816.1
2018-May-19 17:30N 55°14' E 013°03'815.5
2018-May-19 17:00N 55°15' E 012°50'714.8
2018-May-19 16:30N 55°18' E 012°38'714.7
2018-May-19 16:00N 55°26' E 012°40'612.9
2018-May-19 15:30N 55°31' E 012°45'4 8.5
2018-May-19 15:01N 55°35' E 012°50'5 9.0
2018-May-19 14:30N 55°38' E 012°56'3 5.2
2018-May-19 14:00N 55°37' E 013°00'0 0.0
2018-May-19 13:30N 55°37' E 013°00'0 0.0
2018-May-19 13:00N 55°37' E 013°00'0 0.0
2018-May-19 12:18N 55°37' E 013°00'0 0.0
2018-May-19 12:00N 55°37' E 013°00'0 0.0
2018-May-19 11:30N 55°37' E 013°00'0 0.0
2018-May-19 11:00N 55°37' E 013°00'0 0.0
2018-May-19 10:30N 55°37' E 013°00'0 0.0
2018-May-19 09:57N 55°37' E 013°00'0 0.0
2018-May-19 09:27N 55°37' E 013°00'0 0.0
2018-May-19 09:00N 55°37' E 013°00'0 0.0
2018-May-19 08:30N 55°37' E 013°00'0 0.0
2018-May-19 08:00N 55°37' E 013°00'0 0.0
2018-May-19 07:30N 55°37' E 013°00'0 0.0
2018-May-19 07:00N 55°37' E 013°00'0 0.0
2018-May-19 06:18N 55°37' E 013°00'0 0.0
2018-May-19 05:57N 55°37' E 013°00'0 0.1
2018-May-19 05:30N 55°37' E 013°00'1 1.7
2018-May-19 05:00N 55°38' E 012°59'4 7.7
2018-May-19 04:30N 55°41' E 012°55'612.1
2018-May-19 04:00N 55°46' E 012°49'612.1
2018-May-19 03:30N 55°51' E 012°43'611.7
2018-May-19 03:01N 55°56' E 012°38'714.1
2018-May-19 02:31N 56°03' E 012°39'612.8
2018-May-19 02:01N 56°07' E 012°30'510.8
2018-May-19 01:31N 56°10' E 012°22'711.1
2018-May-19 00:54N 56°14' E 012°12'2410.8
2018-May-18 22:42N 56°36' E 011°56'411.1
2018-May-18 22:22N 56°40' E 011°54'411.3
2018-May-18 22:00N 56°44' E 011°52'511.1
2018-May-18 21:30N 56°49' E 011°49'816.1
2018-May-18 21:00N 56°56' E 011°44'816.8
2018-May-18 20:31N 57°04' E 011°39'816.7
2018-May-18 20:01N 57°12' E 011°34'816.9
2018-May-18 19:30N 57°20' E 011°29'816.8
2018-May-18 19:01N 57°28' E 011°24'816.8
2018-May-18 18:30N 57°37' E 011°23'917.2
2018-May-18 18:01N 57°45' E 011°24'714.1
2018-May-18 17:30N 57°52' E 011°27'713.3
2018-May-18 17:01N 57°55' E 011°38'714.7
2018-May-18 16:30N 58°01' E 011°47'5 9.9
2018-May-18 16:01N 58°06' E 011°48'5 9.2
2018-May-18 15:31N 58°10' E 011°51'9 5.5
2018-May-18 13:49N 58°19' E 011°49'410.0
2018-May-18 13:22N 58°15' E 011°50'512.8
2018-May-18 13:00N 58°10' E 011°51'4 9.0
2018-May-18 12:30N 58°06' E 011°48'510.2
2018-May-18 12:00N 58°01' E 011°47'714.7
2018-May-18 11:30N 57°55' E 011°38'611.8
2018-May-18 11:00N 57°52' E 011°29'3 6.8
2018-May-18 10:30N 57°52' E 011°23'714.8
2018-May-18 10:00N 57°59' E 011°17'815.7
2018-May-18 09:30N 58°07' E 011°12'815.2
2018-May-18 09:00N 58°14' E 011°14'510.6
2018-May-18 08:30N 58°16' E 011°23'4 1.9
2018-May-18 06:18N 58°18' E 011°31'412.6
2018-May-18 06:00N 58°16' E 011°25'611.3
2018-May-18 05:31N 58°15' E 011°15'611.4
2018-May-18 05:00N 58°13' E 011°04'612.1
2018-May-18 04:30N 58°11' E 010°54'510.8
2018-May-18 04:00N 58°09' E 010°44'510.6
2018-May-18 03:30N 58°07' E 010°34'510.4
2018-May-18 03:00N 58°05' E 010°25'510.7
2018-May-18 02:30N 58°03' E 010°16'611.1
2018-May-18 02:00N 58°01' E 010°06'611.1
2018-May-18 01:30N 57°59' E 009°57'510.4
2018-May-18 01:00N 57°57' E 009°48'6511.9
2018-May-17 19:34N 57°32' E 007°56'316.2
2018-May-17 19:24N 57°31' E 007°51'816.4
2018-May-17 18:56N 57°28' E 007°38'816.1
2018-May-17 18:28N 57°26' E 007°25'815.6
2018-May-17 17:58N 57°24' E 007°10'28914.8
2018-May-16 22:25N 56°14' W 001°22'615.6
2018-May-16 22:00N 56°13' W 001°33'815.5
2018-May-16 21:30N 56°12' W 001°47'815.4
2018-May-16 21:00N 56°10' W 002°00'815.4
2018-May-16 20:29N 56°08' W 002°14'815.6
2018-May-16 20:00N 56°08' W 002°28'816.2
2018-May-16 19:30N 56°07' W 002°42'815.8
2018-May-16 19:00N 56°05' W 002°56'713.4
2018-May-16 18:30N 56°03' W 003°07'  
Track history (hours):
 
Tides and Currents Weather Stations Pressure Air Temp Water Temp Dewpoint Dewpoint Depression Visibility Wind Speed Wind Dir Waves Ship Positions

Norwegian Crown

Operator: Norwegian Cruise Line

Last reported at 2018-May-26 04:24 UTC. Time now 2018-May-26 10:13 UTC.
Position N 56°01' W 003°26'.

Type: Ship. MMSI: 308785000.

Date/timePositionNaut miles runAvg speedWind from/ knotsBaromVisibWave heightAir tempDewpointWater temp
2018-May-26 04:24N 56°01' W 003°26'2 5.5
2018-May-26 04:00N 56°01' W 003°22'510.6
2018-May-26 03:31N 56°02' W 003°13'510.0
2018-May-26 03:00N 56°04' W 003°05'510.2
2018-May-26 02:30N 56°05' W 002°56'5 9.7
2018-May-26 02:01N 56°07' W 002°48'5 9.9
2018-May-26 01:31N 56°08' W 002°40'5 9.8
2018-May-26 01:01N 56°08' W 002°31'5 9.3
2018-May-26 00:30N 56°08' W 002°22'611.1
2018-May-26 00:01N 56°09' W 002°13'611.5
2018-May-25 23:30N 56°10' W 002°02'611.7
2018-May-25 23:00N 56°10' W 001°52'811.8
2018-May-25 22:22N 56°12' W 001°39'25314.5
2018-May-25 04:57N 57°12' E 005°49'2516.7
2018-May-25 03:27N 57°20' E 006°33'716.3
2018-May-25 03:00N 57°22' E 006°46'816.4
2018-May-25 02:30N 57°25' E 007°01'3616.4
2018-May-25 00:18N 57°36' E 008°05'516.7
2018-May-25 00:00N 57°38' E 008°13'816.6
2018-May-24 23:30N 57°40' E 008°28'916.5
2018-May-24 22:59N 57°43' E 008°43'816.2
2018-May-24 22:30N 57°45' E 008°57'2216.0
2018-May-24 21:09N 57°49' E 009°37'316.1
2018-May-24 20:59N 57°49' E 009°42'816.2
2018-May-24 20:30N 57°49' E 009°57'816.6
2018-May-24 20:00N 57°49' E 010°12'816.7
2018-May-24 19:31N 57°50' E 010°28'816.3
2018-May-24 19:01N 57°50' E 010°43'815.7
2018-May-24 18:31N 57°46' E 010°55'816.1
2018-May-24 18:01N 57°42' E 011°08'816.2
2018-May-24 17:30N 57°39' E 011°22'815.6
2018-May-24 17:01N 57°36' E 011°36'611.3
2018-May-24 16:30N 57°41' E 011°42'510.8
2018-May-24 16:00N 57°41' E 011°52'2 4.2
2018-May-24 15:30N 57°42' E 011°56'0 0.2
2018-May-24 15:00N 57°42' E 011°56'0 0.0
2018-May-24 14:31N 57°42' E 011°56'0 0.0
2018-May-24 14:01N 57°42' E 011°56'0 0.0
2018-May-24 13:27N 57°42' E 011°56'0 0.0
2018-May-24 09:01N 57°42' E 011°56'0 0.0
2018-May-24 08:30N 57°42' E 011°56'0 0.0
2018-May-24 08:01N 57°42' E 011°56'0 0.0
2018-May-24 07:30N 57°42' E 011°56'0 0.0
2018-May-24 07:01N 57°42' E 011°56'0 0.0
2018-May-24 06:27N 57°42' E 011°56'0 0.0
2018-May-24 06:01N 57°42' E 011°56'0 0.9
2018-May-24 05:30N 57°42' E 011°57'2 3.8
2018-May-24 05:01N 57°41' E 011°53'510.4
2018-May-24 04:31N 57°39' E 011°45'611.4
2018-May-24 04:01N 57°35' E 011°38'510.2
2018-May-24 03:30N 57°30' E 011°37'612.2
2018-May-24 03:00N 57°23' E 011°37'611.1
2018-May-24 02:27N 57°17' E 011°38'510.8
2018-May-24 02:00N 57°13' E 011°39'1010.6
2018-May-24 01:01N 57°02' E 011°43'010.7
2018-May-24 01:00N 57°02' E 011°43'1210.6
2018-May-23 23:54N 56°51' E 011°52'1411.0
2018-May-23 22:34N 56°37' E 011°57'110.9
2018-May-23 22:26N 56°36' E 011°58'1010.8
2018-May-23 21:31N 56°26' E 012°02'510.8
2018-May-23 21:00N 56°21' E 012°04'915.0
2018-May-23 20:25N 56°14' E 012°15'716.0
2018-May-23 20:00N 56°10' E 012°25'816.2
2018-May-23 19:30N 56°05' E 012°36'815.7
2018-May-23 19:01N 55°58' E 012°42'714.5
2018-May-23 18:30N 55°51' E 012°45'815.2
2018-May-23 18:00N 55°44' E 012°41'510.9
2018-May-23 17:30N 55°38' E 012°42'4 8.3
2018-May-23 17:00N 55°34' E 012°42'510.5
2018-May-23 16:30N 55°29' E 012°42'815.1
2018-May-23 16:01N 55°22' E 012°40'612.3
2018-May-23 15:31N 55°17' E 012°47'815.8
2018-May-23 15:01N 55°15' E 013°01'816.1
2018-May-23 14:30N 55°15' E 013°15'1016.2
2018-May-23 13:55N 55°14' E 013°32'716.2
2018-May-23 13:30N 55°14' E 013°44'816.2
2018-May-23 13:00N 55°13' E 013°58'816.1
2018-May-23 12:31N 55°13' E 014°12'815.2
2018-May-23 12:00N 55°18' E 014°22'816.2
2018-May-23 11:31N 55°24' E 014°31'815.8
2018-May-23 11:01N 55°29' E 014°42'816.0
2018-May-23 10:31N 55°33' E 014°54'816.0
2018-May-23 10:00N 55°37' E 015°07'815.9
2018-May-23 09:31N 55°41' E 015°19'815.9
2018-May-23 09:00N 55°45' E 015°31'816.0
2018-May-23 08:31N 55°48' E 015°44'816.1
2018-May-23 08:00N 55°52' E 015°56'816.1
2018-May-23 07:30N 55°57' E 016°09'815.9
2018-May-23 07:00N 56°01' E 016°21'816.0
2018-May-23 06:31N 56°05' E 016°33'816.0
2018-May-23 06:00N 56°10' E 016°45'816.1
2018-May-23 05:30N 56°17' E 016°51'816.2
2018-May-23 05:00N 56°25' E 016°56'816.2
2018-May-23 04:31N 56°32' E 017°01'816.3
2018-May-23 04:01N 56°40' E 017°07'816.2
2018-May-23 03:31N 56°47' E 017°12'1316.2
2018-May-23 02:41N 56°60' E 017°21'7216.1
2018-May-22 22:14N 58°05' E 018°14'916.0
2018-May-22 21:42N 58°13' E 018°21'916.1
2018-May-22 21:10N 58°21' E 018°29'316.3
2018-May-22 20:59N 58°24' E 018°31'816.0
2018-May-22 20:28N 58°31' E 018°38'815.8
2018-May-22 19:58N 58°38' E 018°45'716.0
2018-May-22 19:30N 58°45' E 018°51'1216.2
2018-May-22 18:48N 58°56' E 018°59'516.1
2018-May-22 18:29N 59°00' E 019°03'816.4
2018-May-22 18:00N 59°08' E 019°08'713.8
2018-May-22 17:31N 59°14' E 019°04'510.4
2018-May-22 17:00N 59°16' E 018°55'510.2
2018-May-22 16:30N 59°20' E 018°48'611.8
2018-May-22 16:00N 59°22' E 018°37'611.8
2018-May-22 15:30N 59°26' E 018°28'3 5.0
2018-May-22 15:00N 59°24' E 018°26'3 5.5
2018-May-22 14:30N 59°22' E 018°23'511.0
2018-May-22 14:00N 59°20' E 018°13'4 8.0
2018-May-22 13:30N 59°19' E 018°05'0 0.1
2018-May-22 12:55N 59°19' E 018°05'0 0.0
2018-May-22 12:28N 59°19' E 018°05'0 0.0
2018-May-22 11:58N 59°19' E 018°05'0 0.0
2018-May-22 11:28N 59°19' E 018°05'0 0.0
2018-May-22 11:00N 59°19' E 018°05'0 0.0
2018-May-22 10:30N 59°19' E 018°05'0 0.0
2018-May-22 10:00N 59°19' E 018°05'0 0.0
2018-May-22 09:30N 59°19' E 018°05'0 0.0
2018-May-22 09:00N 59°19' E 018°05'0 0.0
2018-May-22 08:31N 59°19' E 018°05'0 0.0
2018-May-22 08:01N 59°19' E 018°05'0 0.0
2018-May-22 07:31N 59°19' E 018°05'0 0.0
2018-May-22 07:00N 59°19' E 018°05'0 0.0
2018-May-22 06:30N 59°19' E 018°05'0 0.0
2018-May-22 06:00N 59°19' E 018°05'0 0.0
2018-May-22 05:30N 59°19' E 018°05'0 0.0
2018-May-22 04:59N 59°19' E 018°05'0 0.0
2018-May-22 04:28N 59°19' E 018°05'0 0.0
2018-May-22 03:59N 59°19' E 018°05'0 0.0
2018-May-22 03:30N 59°19' E 018°05'0 0.0
2018-May-22 03:00N 59°19' E 018°05'0 0.0
2018-May-22 02:31N 59°19' E 018°05'0 0.0
2018-May-22 02:00N 59°19' E 018°05'0 0.0
2018-May-22 01:31N 59°19' E 018°05'0 0.0
2018-May-22 00:59N 59°19' E 018°05'0 0.0
2018-May-22 00:31N 59°19' E 018°05'0 0.0
2018-May-22 00:00N 59°19' E 018°05'0 0.0
2018-May-21 23:31N 59°19' E 018°05'0 0.0
2018-May-21 23:00N 59°19' E 018°05'0 0.0
2018-May-21 22:30N 59°19' E 018°05'0 0.0
2018-May-21 22:01N 59°19' E 018°05'0 0.0
2018-May-21 21:30N 59°19' E 018°05'0 0.0
2018-May-21 21:01N 59°19' E 018°05'0 0.0
2018-May-21 20:30N 59°19' E 018°05'0 0.0
2018-May-21 20:00N 59°19' E 018°05'0 0.0
2018-May-21 19:31N 59°19' E 018°05'0 0.0
2018-May-21 19:00N 59°19' E 018°05'0 0.0
2018-May-21 18:30N 59°19' E 018°05'0 0.0
2018-May-21 18:00N 59°19' E 018°05'0 0.0
2018-May-21 17:31N 59°19' E 018°05'0 0.0
2018-May-21 17:00N 59°19' E 018°05'0 0.0
2018-May-21 16:31N 59°19' E 018°05'0 0.0
2018-May-21 16:01N 59°19' E 018°05'0 0.0
2018-May-21 15:31N 59°19' E 018°05'0 0.0
2018-May-21 15:01N 59°19' E 018°05'0 0.0
2018-May-21 14:30N 59°19' E 018°05'0 0.0
2018-May-21 14:00N 59°19' E 018°05'0 0.0
2018-May-21 13:31N 59°19' E 018°05'0 0.0
2018-May-21 13:00N 59°19' E 018°05'0 0.0
2018-May-21 12:31N 59°19' E 018°05'0 0.0
2018-May-21 12:00N 59°19' E 018°05'0 0.0
2018-May-21 11:30N 59°19' E 018°05'0 0.0
2018-May-21 11:00N 59°19' E 018°05'0 0.0
2018-May-21 10:30N 59°19' E 018°05'0 0.0
2018-May-21 10:01N 59°19' E 018°05'0 0.0
2018-May-21 09:31N 59°19' E 018°05'0 0.0
2018-May-21 09:01N 59°19' E 018°05'0 0.0
2018-May-21 08:31N 59°19' E 018°05'0 0.1
2018-May-21 08:00N 59°19' E 018°05'0 0.0
2018-May-21 07:31N 59°19' E 018°05'0 0.0
2018-May-21 07:00N 59°19' E 018°05'0 0.0
2018-May-21 06:31N 59°19' E 018°05'2 4.4
2018-May-21 06:00N 59°19' E 018°09'510.8
2018-May-21 05:30N 59°23' E 018°17'5 9.7
2018-May-21 05:00N 59°22' E 018°27'5 9.9
2018-May-21 04:30N 59°26' E 018°23'611.1
2018-May-21 04:00N 59°24' E 018°33'611.8
2018-May-21 03:30N 59°22' E 018°44'713.1
2018-May-21 03:01N 59°18' E 018°53'510.0
2018-May-21 02:30N 59°15' E 019°02'713.1
2018-May-21 02:00N 59°11' E 019°12'5 9.9
2018-May-21 01:30N 59°06' E 019°12'510.2
2018-May-21 01:00N 59°01' E 019°08'510.7
2018-May-21 00:30N 58°56' E 019°05'611.1
2018-May-20 23:59N 58°51' E 019°01'610.9
2018-May-20 23:27N 58°45' E 018°57'511.1
2018-May-20 23:00N 58°41' E 018°53'611.0
2018-May-20 22:28N 58°35' E 018°49'100 6.1
2018-May-20 06:06N 57°04' E 017°33'316.8
2018-May-20 05:55N 57°01' E 017°31'716.9
2018-May-20 05:31N 56°55' E 017°26'816.8
2018-May-20 05:00N 56°47' E 017°20'816.7
2018-May-20 04:30N 56°39' E 017°15'816.7
2018-May-20 04:00N 56°32' E 017°09'816.6
2018-May-20 03:30N 56°24' E 017°03'816.6
2018-May-20 03:00N 56°16' E 016°57'816.6
2018-May-20 02:30N 56°09' E 016°52'816.1
2018-May-20 02:00N 56°03' E 016°42'816.6
2018-May-20 01:30N 55°58' E 016°30'816.7
2018-May-20 01:00N 55°53' E 016°17'816.8
2018-May-20 00:31N 55°50' E 016°04'816.8
2018-May-20 00:00N 55°46' E 015°51'816.6
2018-May-19 23:30N 55°42' E 015°38'816.6
2018-May-19 23:00N 55°38' E 015°25'816.7
2018-May-19 22:30N 55°34' E 015°12'816.6
2018-May-19 22:00N 55°30' E 014°59'816.5
2018-May-19 21:31N 55°26' E 014°46'816.4
2018-May-19 21:00N 55°21' E 014°34'816.3
2018-May-19 20:30N 55°15' E 014°25'815.8
2018-May-19 20:01N 55°11' E 014°14'816.5
2018-May-19 19:30N 55°11' E 013°59'816.2
2018-May-19 19:00N 55°11' E 013°45'816.1
2018-May-19 18:30N 55°11' E 013°31'816.0
2018-May-19 18:00N 55°12' E 013°17'816.1
2018-May-19 17:30N 55°14' E 013°03'815.5
2018-May-19 17:00N 55°15' E 012°50'714.8
2018-May-19 16:30N 55°18' E 012°38'714.7
2018-May-19 16:00N 55°26' E 012°40'612.9
2018-May-19 15:30N 55°31' E 012°45'4 8.5
2018-May-19 15:01N 55°35' E 012°50'5 9.0
2018-May-19 14:30N 55°38' E 012°56'3 5.2
2018-May-19 14:00N 55°37' E 013°00'0 0.0
2018-May-19 13:30N 55°37' E 013°00'0 0.0
2018-May-19 13:00N 55°37' E 013°00'0 0.0
2018-May-19 12:18N 55°37' E 013°00'0 0.0
2018-May-19 12:00N 55°37' E 013°00'0 0.0
2018-May-19 11:30N 55°37' E 013°00'0 0.0
2018-May-19 11:00N 55°37' E 013°00'0 0.0
2018-May-19 10:30N 55°37' E 013°00'0 0.0
2018-May-19 09:57N 55°37' E 013°00'0 0.0
2018-May-19 09:27N 55°37' E 013°00'0 0.0
2018-May-19 09:00N 55°37' E 013°00'0 0.0
2018-May-19 08:30N 55°37' E 013°00'0 0.0
2018-May-19 08:00N 55°37' E 013°00'0 0.0
2018-May-19 07:30N 55°37' E 013°00'0 0.0
2018-May-19 07:00N 55°37' E 013°00'0 0.0
2018-May-19 06:18N 55°37' E 013°00'0 0.0
2018-May-19 05:57N 55°37' E 013°00'0 0.1
2018-May-19 05:30N 55°37' E 013°00'1 1.7
2018-May-19 05:00N 55°38' E 012°59'4 7.7
2018-May-19 04:30N 55°41' E 012°55'612.1
2018-May-19 04:00N 55°46' E 012°49'612.1
2018-May-19 03:30N 55°51' E 012°43'611.7
2018-May-19 03:01N 55°56' E 012°38'714.1
2018-May-19 02:31N 56°03' E 012°39'612.8
2018-May-19 02:01N 56°07' E 012°30'510.8
2018-May-19 01:31N 56°10' E 012°22'711.1
2018-May-19 00:54N 56°14' E 012°12'2410.8
2018-May-18 22:42N 56°36' E 011°56'411.1
2018-May-18 22:22N 56°40' E 011°54'411.3
2018-May-18 22:00N 56°44' E 011°52'511.1
2018-May-18 21:30N 56°49' E 011°49'816.1
2018-May-18 21:00N 56°56' E 011°44'816.8
2018-May-18 20:31N 57°04' E 011°39'816.7
2018-May-18 20:01N 57°12' E 011°34'816.9
2018-May-18 19:30N 57°20' E 011°29'816.8
2018-May-18 19:01N 57°28' E 011°24'816.8
2018-May-18 18:30N 57°37' E 011°23'917.2
2018-May-18 18:01N 57°45' E 011°24'714.1
2018-May-18 17:30N 57°52' E 011°27'713.3
2018-May-18 17:01N 57°55' E 011°38'714.7
2018-May-18 16:30N 58°01' E 011°47'5 9.9
2018-May-18 16:01N 58°06' E 011°48'5 9.2
2018-May-18 15:31N 58°10' E 011°51'9 5.5
2018-May-18 13:49N 58°19' E 011°49'410.0
2018-May-18 13:22N 58°15' E 011°50'512.8
2018-May-18 13:00N 58°10' E 011°51'4 9.0
2018-May-18 12:30N 58°06' E 011°48'510.2
2018-May-18 12:00N 58°01' E 011°47'714.7
2018-May-18 11:30N 57°55' E 011°38'611.8
2018-May-18 11:00N 57°52' E 011°29'3 6.8
2018-May-18 10:30N 57°52' E 011°23'714.8
2018-May-18 10:00N 57°59' E 011°17'815.7
2018-May-18 09:30N 58°07' E 011°12'815.2
2018-May-18 09:00N 58°14' E 011°14'510.6
2018-May-18 08:30N 58°16' E 011°23'4 1.9
2018-May-18 06:18N 58°18' E 011°31'412.6
2018-May-18 06:00N 58°16' E 011°25'611.3
2018-May-18 05:31N 58°15' E 011°15'611.4
2018-May-18 05:00N 58°13' E 011°04'612.1
2018-May-18 04:30N 58°11' E 010°54'510.8
2018-May-18 04:00N 58°09' E 010°44'510.6
2018-May-18 03:30N 58°07' E 010°34'510.4
2018-May-18 03:00N 58°05' E 010°25'510.7
2018-May-18 02:30N 58°03' E 010°16'611.1
2018-May-18 02:00N 58°01' E 010°06'611.1
2018-May-18 01:30N 57°59' E 009°57'510.4
2018-May-18 01:00N 57°57' E 009°48'6511.9
2018-May-17 19:34N 57°32' E 007°56'316.2
2018-May-17 19:24N 57°31' E 007°51'816.4
2018-May-17 18:56N 57°28' E 007°38'816.1
2018-May-17 18:28N 57°26' E 007°25'815.6
2018-May-17 17:58N 57°24' E 007°10'28914.8
2018-May-16 22:25N 56°14' W 001°22'615.6
2018-May-16 22:00N 56°13' W 001°33'815.5
2018-May-16 21:30N 56°12' W 001°47'815.4
2018-May-16 21:00N 56°10' W 002°00'815.4
2018-May-16 20:29N 56°08' W 002°14'815.6
2018-May-16 20:00N 56°08' W 002°28'816.2
2018-May-16 19:30N 56°07' W 002°42'815.8
2018-May-16 19:00N 56°05' W 002°56'713.4
2018-May-16 18:30N 56°03' W 003°07'  

Dump ship's entire track history